<?xml version="1.0" encoding="UTF-8" standalone="no" ?>
<gpx xmlns="http://www.topografix.com/GPX/1/1" xmlns:xsi="http://www.w3.org/2001/XMLSchema-instance" xsi:schemaLocation="http://www.topografix.com/GPX/1/1 http://www.topografix.com/GPX/1/1/gpx.xsd" version="1.1" creator="VisuGPX - https://www.visugpx.com">
  <metadata>
    <name>boucle de ste Mesme</name>
    <desc><![CDATA[rando ris martine boucle de ste mesme, ]]></desc>
  </metadata>
  <trk>
    <name><![CDATA[20180209205554-fY3Pa]]></name>
    <trkseg>
      <trkpt lat="48.53102" lon="1.96152">
        <ele>108</ele>
        <time>2018-02-09T20:49:45Z</time>
      </trkpt>
      <trkpt lat="48.53102" lon="1.96243">
        <ele>109</ele>
        <time>2018-02-09T20:50:45Z</time>
      </trkpt>
      <trkpt lat="48.53086" lon="1.96263">
        <ele>110</ele>
        <time>2018-02-09T20:51:45Z</time>
      </trkpt>
      <trkpt lat="48.53051" lon="1.96249">
        <ele>108</ele>
        <time>2018-02-09T20:52:45Z</time>
      </trkpt>
      <trkpt lat="48.5304" lon="1.96327">
        <ele>111</ele>
        <time>2018-02-09T20:53:45Z</time>
      </trkpt>
      <trkpt lat="48.53027" lon="1.96403">
        <ele>112</ele>
        <time>2018-02-09T20:54:45Z</time>
      </trkpt>
      <trkpt lat="48.53038" lon="1.96449">
        <ele>111</ele>
        <time>2018-02-09T20:55:45Z</time>
      </trkpt>
      <trkpt lat="48.53066" lon="1.96471">
        <ele>112</ele>
        <time>2018-02-09T20:56:45Z</time>
      </trkpt>
      <trkpt lat="48.53064" lon="1.96525">
        <ele>112</ele>
        <time>2018-02-09T20:57:45Z</time>
      </trkpt>
      <trkpt lat="48.53076" lon="1.96643">
        <ele>114</ele>
        <time>2018-02-09T20:58:45Z</time>
      </trkpt>
      <trkpt lat="48.53113" lon="1.9675">
        <ele>125</ele>
        <time>2018-02-09T20:59:45Z</time>
      </trkpt>
      <trkpt lat="48.5307" lon="1.96862">
        <ele>122</ele>
        <time>2018-02-09T21:00:45Z</time>
      </trkpt>
      <trkpt lat="48.53133" lon="1.96913">
        <ele>136</ele>
        <time>2018-02-09T21:01:45Z</time>
      </trkpt>
      <trkpt lat="48.53205" lon="1.96941">
        <ele>148</ele>
        <time>2018-02-09T21:02:45Z</time>
      </trkpt>
      <trkpt lat="48.5332" lon="1.96943">
        <ele>154</ele>
        <time>2018-02-09T21:03:45Z</time>
      </trkpt>
      <trkpt lat="48.5336" lon="1.96887">
        <ele>158</ele>
        <time>2018-02-09T21:04:45Z</time>
      </trkpt>
      <trkpt lat="48.53331" lon="1.96814">
        <ele>153</ele>
        <time>2018-02-09T21:05:45Z</time>
      </trkpt>
      <trkpt lat="48.53306" lon="1.96733">
        <ele>144</ele>
        <time>2018-02-09T21:06:45Z</time>
      </trkpt>
      <trkpt lat="48.53367" lon="1.96632">
        <ele>149</ele>
        <time>2018-02-09T21:07:45Z</time>
      </trkpt>
      <trkpt lat="48.53394" lon="1.96503">
        <ele>148</ele>
        <time>2018-02-09T21:08:45Z</time>
      </trkpt>
      <trkpt lat="48.53465" lon="1.96347">
        <ele>149</ele>
        <time>2018-02-09T21:09:45Z</time>
      </trkpt>
      <trkpt lat="48.53522" lon="1.96214">
        <ele>149</ele>
        <time>2018-02-09T21:10:45Z</time>
      </trkpt>
      <trkpt lat="48.53516" lon="1.96143">
        <ele>145</ele>
        <time>2018-02-09T21:11:45Z</time>
      </trkpt>
      <trkpt lat="48.53508" lon="1.96085">
        <ele>142</ele>
        <time>2018-02-09T21:12:45Z</time>
      </trkpt>
      <trkpt lat="48.53569" lon="1.96008">
        <ele>146</ele>
        <time>2018-02-09T21:13:45Z</time>
      </trkpt>
      <trkpt lat="48.53613" lon="1.95909">
        <ele>145</ele>
        <time>2018-02-09T21:14:45Z</time>
      </trkpt>
      <trkpt lat="48.53654" lon="1.95741">
        <ele>140</ele>
        <time>2018-02-09T21:15:45Z</time>
      </trkpt>
      <trkpt lat="48.53725" lon="1.95705">
        <ele>149</ele>
        <time>2018-02-09T21:16:45Z</time>
      </trkpt>
      <trkpt lat="48.53732" lon="1.95649">
        <ele>146</ele>
        <time>2018-02-09T21:17:45Z</time>
      </trkpt>
      <trkpt lat="48.53742" lon="1.95546">
        <ele>142</ele>
        <time>2018-02-09T21:18:45Z</time>
      </trkpt>
      <trkpt lat="48.53769" lon="1.95448">
        <ele>142</ele>
        <time>2018-02-09T21:19:45Z</time>
      </trkpt>
      <trkpt lat="48.53856" lon="1.95415">
        <ele>145</ele>
        <time>2018-02-09T21:20:45Z</time>
      </trkpt>
      <trkpt lat="48.53866" lon="1.95372">
        <ele>145</ele>
        <time>2018-02-09T21:21:45Z</time>
      </trkpt>
      <trkpt lat="48.53837" lon="1.9531">
        <ele>137</ele>
        <time>2018-02-09T21:22:45Z</time>
      </trkpt>
      <trkpt lat="48.53887" lon="1.95186">
        <ele>128</ele>
        <time>2018-02-09T21:23:45Z</time>
      </trkpt>
      <trkpt lat="48.53923" lon="1.95226">
        <ele>132</ele>
        <time>2018-02-09T21:24:45Z</time>
      </trkpt>
      <trkpt lat="48.5395" lon="1.95267">
        <ele>139</ele>
        <time>2018-02-09T21:25:45Z</time>
      </trkpt>
      <trkpt lat="48.53994" lon="1.95244">
        <ele>135</ele>
        <time>2018-02-09T21:26:45Z</time>
      </trkpt>
      <trkpt lat="48.54008" lon="1.95179">
        <ele>134</ele>
        <time>2018-02-09T21:27:45Z</time>
      </trkpt>
      <trkpt lat="48.54079" lon="1.95102">
        <ele>137</ele>
        <time>2018-02-09T21:28:45Z</time>
      </trkpt>
      <trkpt lat="48.54063" lon="1.95029">
        <ele>134</ele>
        <time>2018-02-09T21:29:45Z</time>
      </trkpt>
      <trkpt lat="48.54076" lon="1.94939">
        <ele>134</ele>
        <time>2018-02-09T21:30:45Z</time>
      </trkpt>
      <trkpt lat="48.54148" lon="1.94941">
        <ele>138</ele>
        <time>2018-02-09T21:31:45Z</time>
      </trkpt>
      <trkpt lat="48.54251" lon="1.94958">
        <ele>143</ele>
        <time>2018-02-09T21:32:45Z</time>
      </trkpt>
      <trkpt lat="48.5431" lon="1.94937">
        <ele>144</ele>
        <time>2018-02-09T21:33:45Z</time>
      </trkpt>
      <trkpt lat="48.54347" lon="1.9513">
        <ele>164</ele>
        <time>2018-02-09T21:34:45Z</time>
      </trkpt>
      <trkpt lat="48.54413" lon="1.95119">
        <ele>164</ele>
        <time>2018-02-09T21:35:45Z</time>
      </trkpt>
      <trkpt lat="48.54485" lon="1.95151">
        <ele>165</ele>
        <time>2018-02-09T21:36:45Z</time>
      </trkpt>
      <trkpt lat="48.5454" lon="1.95188">
        <ele>166</ele>
        <time>2018-02-09T21:37:45Z</time>
      </trkpt>
      <trkpt lat="48.54589" lon="1.95192">
        <ele>164</ele>
        <time>2018-02-09T21:38:45Z</time>
      </trkpt>
      <trkpt lat="48.54673" lon="1.95229">
        <ele>165</ele>
        <time>2018-02-09T21:39:45Z</time>
      </trkpt>
      <trkpt lat="48.5469" lon="1.95175">
        <ele>165</ele>
        <time>2018-02-09T21:40:45Z</time>
      </trkpt>
      <trkpt lat="48.54681" lon="1.94948">
        <ele>170</ele>
        <time>2018-02-09T21:41:45Z</time>
      </trkpt>
      <trkpt lat="48.54613" lon="1.94825">
        <ele>171</ele>
        <time>2018-02-09T21:42:45Z</time>
      </trkpt>
      <trkpt lat="48.54532" lon="1.94694">
        <ele>168</ele>
        <time>2018-02-09T21:43:45Z</time>
      </trkpt>
      <trkpt lat="48.54457" lon="1.94497">
        <ele>169</ele>
        <time>2018-02-09T21:44:45Z</time>
      </trkpt>
      <trkpt lat="48.54406" lon="1.94345">
        <ele>169</ele>
        <time>2018-02-09T21:45:45Z</time>
      </trkpt>
      <trkpt lat="48.54424" lon="1.94248">
        <ele>170</ele>
        <time>2018-02-09T21:46:45Z</time>
      </trkpt>
      <trkpt lat="48.54478" lon="1.94182">
        <ele>168</ele>
        <time>2018-02-09T21:47:45Z</time>
      </trkpt>
      <trkpt lat="48.54539" lon="1.94124">
        <ele>166</ele>
        <time>2018-02-09T21:48:45Z</time>
      </trkpt>
      <trkpt lat="48.54603" lon="1.94061">
        <ele>165</ele>
        <time>2018-02-09T21:49:45Z</time>
      </trkpt>
      <trkpt lat="48.54519" lon="1.93941">
        <ele>151</ele>
        <time>2018-02-09T21:50:45Z</time>
      </trkpt>
      <trkpt lat="48.5446" lon="1.93945">
        <ele>147</ele>
        <time>2018-02-09T21:51:45Z</time>
      </trkpt>
      <trkpt lat="48.54397" lon="1.93873">
        <ele>135</ele>
        <time>2018-02-09T21:52:45Z</time>
      </trkpt>
      <trkpt lat="48.54377" lon="1.93767">
        <ele>132</ele>
        <time>2018-02-09T21:53:45Z</time>
      </trkpt>
      <trkpt lat="48.54343" lon="1.93705">
        <ele>132</ele>
        <time>2018-02-09T21:54:45Z</time>
      </trkpt>
      <trkpt lat="48.54302" lon="1.93613">
        <ele>134</ele>
        <time>2018-02-09T21:55:45Z</time>
      </trkpt>
      <trkpt lat="48.54275" lon="1.93512">
        <ele>136</ele>
        <time>2018-02-09T21:56:45Z</time>
      </trkpt>
      <trkpt lat="48.54175" lon="1.93336">
        <ele>144</ele>
        <time>2018-02-09T21:57:45Z</time>
      </trkpt>
      <trkpt lat="48.54077" lon="1.93132">
        <ele>155</ele>
        <time>2018-02-09T21:58:45Z</time>
      </trkpt>
      <trkpt lat="48.54069" lon="1.93068">
        <ele>160</ele>
        <time>2018-02-09T21:59:45Z</time>
      </trkpt>
      <trkpt lat="48.54021" lon="1.93001">
        <ele>161</ele>
        <time>2018-02-09T22:00:45Z</time>
      </trkpt>
      <trkpt lat="48.53977" lon="1.92954">
        <ele>159</ele>
        <time>2018-02-09T22:01:45Z</time>
      </trkpt>
      <trkpt lat="48.5392" lon="1.92894">
        <ele>156</ele>
        <time>2018-02-09T22:02:45Z</time>
      </trkpt>
      <trkpt lat="48.53881" lon="1.92806">
        <ele>149</ele>
        <time>2018-02-09T22:03:45Z</time>
      </trkpt>
      <trkpt lat="48.53749" lon="1.92716">
        <ele>159</ele>
        <time>2018-02-09T22:04:45Z</time>
      </trkpt>
      <trkpt lat="48.5359" lon="1.92669">
        <ele>166</ele>
        <time>2018-02-09T22:05:45Z</time>
      </trkpt>
      <trkpt lat="48.53539" lon="1.92583">
        <ele>165</ele>
        <time>2018-02-09T22:06:45Z</time>
      </trkpt>
      <trkpt lat="48.53496" lon="1.92465">
        <ele>164</ele>
        <time>2018-02-09T22:07:45Z</time>
      </trkpt>
      <trkpt lat="48.5342" lon="1.92334">
        <ele>164</ele>
        <time>2018-02-09T22:08:45Z</time>
      </trkpt>
      <trkpt lat="48.53374" lon="1.92283">
        <ele>163</ele>
        <time>2018-02-09T22:09:45Z</time>
      </trkpt>
      <trkpt lat="48.53275" lon="1.92242">
        <ele>162</ele>
        <time>2018-02-09T22:10:45Z</time>
      </trkpt>
      <trkpt lat="48.53202" lon="1.92152">
        <ele>158</ele>
        <time>2018-02-09T22:11:45Z</time>
      </trkpt>
      <trkpt lat="48.53052" lon="1.92038">
        <ele>151</ele>
        <time>2018-02-09T22:12:45Z</time>
      </trkpt>
      <trkpt lat="48.52701" lon="1.91793">
        <ele>158</ele>
        <time>2018-02-09T22:13:45Z</time>
      </trkpt>
      <trkpt lat="48.52634" lon="1.9172">
        <ele>159</ele>
        <time>2018-02-09T22:14:45Z</time>
      </trkpt>
      <trkpt lat="48.52543" lon="1.91772">
        <ele>158</ele>
        <time>2018-02-09T22:15:45Z</time>
      </trkpt>
      <trkpt lat="48.52463" lon="1.91823">
        <ele>156</ele>
        <time>2018-02-09T22:16:45Z</time>
      </trkpt>
      <trkpt lat="48.52384" lon="1.918">
        <ele>157</ele>
        <time>2018-02-09T22:17:45Z</time>
      </trkpt>
      <trkpt lat="48.52254" lon="1.91729">
        <ele>159</ele>
        <time>2018-02-09T22:18:45Z</time>
      </trkpt>
      <trkpt lat="48.52176" lon="1.91742">
        <ele>160</ele>
        <time>2018-02-09T22:19:45Z</time>
      </trkpt>
      <trkpt lat="48.52078" lon="1.91778">
        <ele>158</ele>
        <time>2018-02-09T22:20:45Z</time>
      </trkpt>
      <trkpt lat="48.51763" lon="1.91849">
        <ele>157</ele>
        <time>2018-02-09T22:21:45Z</time>
      </trkpt>
      <trkpt lat="48.51653" lon="1.91864">
        <ele>158</ele>
        <time>2018-02-09T22:22:45Z</time>
      </trkpt>
      <trkpt lat="48.51574" lon="1.91875">
        <ele>158</ele>
        <time>2018-02-09T22:23:45Z</time>
      </trkpt>
      <trkpt lat="48.51447" lon="1.91821">
        <ele>159</ele>
        <time>2018-02-09T22:24:45Z</time>
      </trkpt>
      <trkpt lat="48.51437" lon="1.91858">
        <ele>159</ele>
        <time>2018-02-09T22:25:45Z</time>
      </trkpt>
      <trkpt lat="48.51369" lon="1.91896">
        <ele>159</ele>
        <time>2018-02-09T22:26:45Z</time>
      </trkpt>
      <trkpt lat="48.51274" lon="1.91813">
        <ele>158</ele>
        <time>2018-02-09T22:27:45Z</time>
      </trkpt>
      <trkpt lat="48.51185" lon="1.91744">
        <ele>152</ele>
        <time>2018-02-09T22:28:45Z</time>
      </trkpt>
      <trkpt lat="48.51087" lon="1.9177">
        <ele>150</ele>
        <time>2018-02-09T22:29:45Z</time>
      </trkpt>
      <trkpt lat="48.51016" lon="1.91787">
        <ele>143</ele>
        <time>2018-02-09T22:30:45Z</time>
      </trkpt>
      <trkpt lat="48.50951" lon="1.9183">
        <ele>136</ele>
        <time>2018-02-09T22:31:45Z</time>
      </trkpt>
      <trkpt lat="48.50905" lon="1.91871">
        <ele>135</ele>
        <time>2018-02-09T22:32:45Z</time>
      </trkpt>
      <trkpt lat="48.50877" lon="1.91931">
        <ele>136</ele>
        <time>2018-02-09T22:33:45Z</time>
      </trkpt>
      <trkpt lat="48.5091" lon="1.92049">
        <ele>137</ele>
        <time>2018-02-09T22:34:45Z</time>
      </trkpt>
      <trkpt lat="48.50931" lon="1.92186">
        <ele>136</ele>
        <time>2018-02-09T22:35:45Z</time>
      </trkpt>
      <trkpt lat="48.50934" lon="1.92278">
        <ele>135</ele>
        <time>2018-02-09T22:36:45Z</time>
      </trkpt>
      <trkpt lat="48.50947" lon="1.92431">
        <ele>132</ele>
        <time>2018-02-09T22:37:45Z</time>
      </trkpt>
      <trkpt lat="48.50995" lon="1.92478">
        <ele>134</ele>
        <time>2018-02-09T22:38:45Z</time>
      </trkpt>
      <trkpt lat="48.50968" lon="1.92564">
        <ele>131</ele>
        <time>2018-02-09T22:39:45Z</time>
      </trkpt>
      <trkpt lat="48.50981" lon="1.92682">
        <ele>127</ele>
        <time>2018-02-09T22:40:45Z</time>
      </trkpt>
      <trkpt lat="48.51021" lon="1.92832">
        <ele>130</ele>
        <time>2018-02-09T22:41:45Z</time>
      </trkpt>
      <trkpt lat="48.50988" lon="1.9287">
        <ele>128</ele>
        <time>2018-02-09T22:42:45Z</time>
      </trkpt>
      <trkpt lat="48.50918" lon="1.93021">
        <ele>127</ele>
        <time>2018-02-09T22:43:45Z</time>
      </trkpt>
      <trkpt lat="48.50949" lon="1.9307">
        <ele>127</ele>
        <time>2018-02-09T22:44:45Z</time>
      </trkpt>
      <trkpt lat="48.50968" lon="1.93122">
        <ele>129</ele>
        <time>2018-02-09T22:45:45Z</time>
      </trkpt>
      <trkpt lat="48.51056" lon="1.93169">
        <ele>133</ele>
        <time>2018-02-09T22:46:45Z</time>
      </trkpt>
      <trkpt lat="48.51089" lon="1.93242">
        <ele>131</ele>
        <time>2018-02-09T22:47:45Z</time>
      </trkpt>
      <trkpt lat="48.51077" lon="1.93349">
        <ele>136</ele>
        <time>2018-02-09T22:48:45Z</time>
      </trkpt>
      <trkpt lat="48.51116" lon="1.93437">
        <ele>131</ele>
        <time>2018-02-09T22:49:45Z</time>
      </trkpt>
      <trkpt lat="48.51146" lon="1.93561">
        <ele>131</ele>
        <time>2018-02-09T22:50:45Z</time>
      </trkpt>
      <trkpt lat="48.51173" lon="1.93645">
        <ele>129</ele>
        <time>2018-02-09T22:51:45Z</time>
      </trkpt>
      <trkpt lat="48.51178" lon="1.93731">
        <ele>131</ele>
        <time>2018-02-09T22:52:45Z</time>
      </trkpt>
      <trkpt lat="48.51249" lon="1.93892">
        <ele>134</ele>
        <time>2018-02-09T22:53:45Z</time>
      </trkpt>
      <trkpt lat="48.51335" lon="1.9413">
        <ele>126</ele>
        <time>2018-02-09T22:54:45Z</time>
      </trkpt>
      <trkpt lat="48.51392" lon="1.94203">
        <ele>122</ele>
        <time>2018-02-09T22:55:45Z</time>
      </trkpt>
      <trkpt lat="48.51389" lon="1.94302">
        <ele>121</ele>
        <time>2018-02-09T22:56:45Z</time>
      </trkpt>
      <trkpt lat="48.5135" lon="1.94413">
        <ele>120</ele>
        <time>2018-02-09T22:57:45Z</time>
      </trkpt>
      <trkpt lat="48.51357" lon="1.94568">
        <ele>121</ele>
        <time>2018-02-09T22:58:45Z</time>
      </trkpt>
      <trkpt lat="48.5132" lon="1.94518">
        <ele>126</ele>
        <time>2018-02-09T22:59:45Z</time>
      </trkpt>
      <trkpt lat="48.51292" lon="1.94544">
        <ele>130</ele>
        <time>2018-02-09T23:00:45Z</time>
      </trkpt>
      <trkpt lat="48.51278" lon="1.94664">
        <ele>133</ele>
        <time>2018-02-09T23:01:45Z</time>
      </trkpt>
      <trkpt lat="48.51292" lon="1.94748">
        <ele>132</ele>
        <time>2018-02-09T23:02:45Z</time>
      </trkpt>
      <trkpt lat="48.51349" lon="1.94868">
        <ele>133</ele>
        <time>2018-02-09T23:03:45Z</time>
      </trkpt>
      <trkpt lat="48.51429" lon="1.94825">
        <ele>127</ele>
        <time>2018-02-09T23:04:45Z</time>
      </trkpt>
      <trkpt lat="48.51527" lon="1.94763">
        <ele>128</ele>
        <time>2018-02-09T23:05:45Z</time>
      </trkpt>
      <trkpt lat="48.51568" lon="1.94696">
        <ele>121</ele>
        <time>2018-02-09T23:06:45Z</time>
      </trkpt>
      <trkpt lat="48.51629" lon="1.94679">
        <ele>120</ele>
        <time>2018-02-09T23:07:45Z</time>
      </trkpt>
      <trkpt lat="48.51635" lon="1.94757">
        <ele>128</ele>
        <time>2018-02-09T23:08:45Z</time>
      </trkpt>
      <trkpt lat="48.51677" lon="1.94804">
        <ele>128</ele>
        <time>2018-02-09T23:09:45Z</time>
      </trkpt>
      <trkpt lat="48.51745" lon="1.94827">
        <ele>129</ele>
        <time>2018-02-09T23:10:45Z</time>
      </trkpt>
      <trkpt lat="48.51808" lon="1.9481">
        <ele>122</ele>
        <time>2018-02-09T23:11:45Z</time>
      </trkpt>
      <trkpt lat="48.51836" lon="1.94913">
        <ele>123</ele>
        <time>2018-02-09T23:12:45Z</time>
      </trkpt>
      <trkpt lat="48.51831" lon="1.94984">
        <ele>126</ele>
        <time>2018-02-09T23:13:45Z</time>
      </trkpt>
      <trkpt lat="48.51768" lon="1.95089">
        <ele>129</ele>
        <time>2018-02-09T23:14:45Z</time>
      </trkpt>
      <trkpt lat="48.51795" lon="1.95128">
        <ele>126</ele>
        <time>2018-02-09T23:15:45Z</time>
      </trkpt>
      <trkpt lat="48.51807" lon="1.95184">
        <ele>127</ele>
        <time>2018-02-09T23:16:45Z</time>
      </trkpt>
      <trkpt lat="48.51876" lon="1.95205">
        <ele>122</ele>
        <time>2018-02-09T23:17:45Z</time>
      </trkpt>
      <trkpt lat="48.51937" lon="1.95272">
        <ele>123</ele>
        <time>2018-02-09T23:18:45Z</time>
      </trkpt>
      <trkpt lat="48.51997" lon="1.95314">
        <ele>121</ele>
        <time>2018-02-09T23:19:45Z</time>
      </trkpt>
      <trkpt lat="48.52075" lon="1.95475">
        <ele>121</ele>
        <time>2018-02-09T23:20:45Z</time>
      </trkpt>
      <trkpt lat="48.52115" lon="1.95508">
        <ele>125</ele>
        <time>2018-02-09T23:21:45Z</time>
      </trkpt>
      <trkpt lat="48.52237" lon="1.95448">
        <ele>118</ele>
        <time>2018-02-09T23:22:45Z</time>
      </trkpt>
      <trkpt lat="48.5226" lon="1.95525">
        <ele>119</ele>
        <time>2018-02-09T23:23:45Z</time>
      </trkpt>
      <trkpt lat="48.52288" lon="1.95651">
        <ele>123</ele>
        <time>2018-02-09T23:24:45Z</time>
      </trkpt>
      <trkpt lat="48.52362" lon="1.95733">
        <ele>119</ele>
        <time>2018-02-09T23:25:45Z</time>
      </trkpt>
      <trkpt lat="48.52423" lon="1.95718">
        <ele>118</ele>
        <time>2018-02-09T23:26:45Z</time>
      </trkpt>
      <trkpt lat="48.52504" lon="1.95718">
        <ele>116</ele>
        <time>2018-02-09T23:27:45Z</time>
      </trkpt>
      <trkpt lat="48.52556" lon="1.95819">
        <ele>117</ele>
        <time>2018-02-09T23:28:45Z</time>
      </trkpt>
      <trkpt lat="48.52598" lon="1.95943">
        <ele>119</ele>
        <time>2018-02-09T23:29:45Z</time>
      </trkpt>
      <trkpt lat="48.52654" lon="1.96057">
        <ele>122</ele>
        <time>2018-02-09T23:30:45Z</time>
      </trkpt>
      <trkpt lat="48.5272" lon="1.96177">
        <ele>125</ele>
        <time>2018-02-09T23:31:45Z</time>
      </trkpt>
      <trkpt lat="48.52777" lon="1.96164">
        <ele>119</ele>
        <time>2018-02-09T23:32:45Z</time>
      </trkpt>
      <trkpt lat="48.52865" lon="1.96188">
        <ele>112</ele>
        <time>2018-02-09T23:33:45Z</time>
      </trkpt>
      <trkpt lat="48.52939" lon="1.96224">
        <ele>109</ele>
        <time>2018-02-09T23:34:45Z</time>
      </trkpt>
      <trkpt lat="48.53022" lon="1.96239">
        <ele>108</ele>
        <time>2018-02-09T23:35:45Z</time>
      </trkpt>
      <trkpt lat="48.53118" lon="1.96263">
        <ele>110</ele>
        <time>2018-02-09T23:36:45Z</time>
      </trkpt>
      <trkpt lat="48.531" lon="1.96108">
        <ele>108</ele>
        <time>2018-02-09T23:37:45Z</time>
      </trkpt>
    </trkseg>
  </trk>
</gpx>